sensor_id;sensor_type;location;lat;lon;timestamp;temperature;humidity
7362;DHT22;3721;44.490;11.220;2022-08-26T00:01:16;26.70;77.20
7362;DHT22;3721;44.490;11.220;2022-08-26T00:03:43;26.70;77.30
7362;DHT22;3721;44.490;11.220;2022-08-26T00:06:09;26.70;77.40
7362;DHT22;3721;44.490;11.220;2022-08-26T00:08:35;26.70;77.40
7362;DHT22;3721;44.490;11.220;2022-08-26T00:11:01;26.70;77.50
7362;DHT22;3721;44.490;11.220;2022-08-26T00:13:27;26.70;77.50
7362;DHT22;3721;44.490;11.220;2022-08-26T00:15:54;26.70;77.50
7362;DHT22;3721;44.490;11.220;2022-08-26T00:18:19;26.70;77.60
7362;DHT22;3721;44.490;11.220;2022-08-26T00:20:45;26.60;77.80
7362;DHT22;3721;44.490;11.220;2022-08-26T00:23:11;26.60;78.10
7362;DHT22;3721;44.490;11.220;2022-08-26T00:25:37;26.50;78.10
7362;DHT22;3721;44.490;11.220;2022-08-26T00:28:04;26.50;78.10
7362;DHT22;3721;44.490;11.220;2022-08-26T00:30:31;26.50;78.00
7362;DHT22;3721;44.490;11.220;2022-08-26T00:32:59;26.50;78.10
7362;DHT22;3721;44.490;11.220;2022-08-26T00:35:26;26.50;78.40
7362;DHT22;3721;44.490;11.220;2022-08-26T00:37:52;26.40;78.60
7362;DHT22;3721;44.490;11.220;2022-08-26T00:40:23;26.40;78.90
7362;DHT22;3721;44.490;11.220;2022-08-26T00:42:49;26.30;79.20
7362;DHT22;3721;44.490;11.220;2022-08-26T00:45:16;26.30;79.40
7362;DHT22;3721;44.490;11.220;2022-08-26T00:48:00;26.30;79.60
7362;DHT22;3721;44.490;11.220;2022-08-26T00:50:39;26.20;79.80
7362;DHT22;3721;44.490;11.220;2022-08-26T00:53:07;26.20;79.80
7362;DHT22;3721;44.490;11.220;2022-08-26T00:56:04;26.10;80.00
7362;DHT22;3721;44.490;11.220;2022-08-26T00:58:32;26.10;80.10
7362;DHT22;3721;44.490;11.220;2022-08-26T01:00:59;26.00;80.40
7362;DHT22;3721;44.490;11.220;2022-08-26T01:03:26;26.00;80.60
7362;DHT22;3721;44.490;11.220;2022-08-26T01:05:56;25.90;80.80
7362;DHT22;3721;44.490;11.220;2022-08-26T01:08:23;25.90;81.50
7362;DHT22;3721;44.490;11.220;2022-08-26T01:10:49;25.90;80.90
7362;DHT22;3721;44.490;11.220;2022-08-26T01:13:15;25.90;80.80
7362;DHT22;3721;44.490;11.220;2022-08-26T01:15:50;25.90;80.80
7362;DHT22;3721;44.490;11.220;2022-08-26T01:18:17;25.90;80.50
7362;DHT22;3721;44.490;11.220;2022-08-26T01:23:18;25.90;80.30
7362;DHT22;3721;44.490;11.220;2022-08-26T01:25:54;25.90;80.30
7362;DHT22;3721;44.490;11.220;2022-08-26T01:28:27;25.90;80.40
7362;DHT22;3721;44.490;11.220;2022-08-26T01:30:56;25.80;80.30
7362;DHT22;3721;44.490;11.220;2022-08-26T01:33:28;25.80;80.50
7362;DHT22;3721;44.490;11.220;2022-08-26T01:35:56;25.70;80.60
7362;DHT22;3721;44.490;11.220;2022-08-26T01:38:22;25.70;80.80
7362;DHT22;3721;44.490;11.220;2022-08-26T01:40:48;25.60;80.80
7362;DHT22;3721;44.490;11.220;2022-08-26T01:43:17;25.60;81.10
7362;DHT22;3721;44.490;11.220;2022-08-26T01:45:45;25.60;80.80
7362;DHT22;3721;44.490;11.220;2022-08-26T01:48:16;25.60;80.80
7362;DHT22;3721;44.490;11.220;2022-08-26T01:50:44;25.60;80.80
7362;DHT22;3721;44.490;11.220;2022-08-26T01:53:12;25.60;80.70
7362;DHT22;3721;44.490;11.220;2022-08-26T01:55:42;25.60;80.80
7362;DHT22;3721;44.490;11.220;2022-08-26T01:58:19;25.60;80.90
7362;DHT22;3721;44.490;11.220;2022-08-26T02:00:45;25.50;80.90
7362;DHT22;3721;44.490;11.220;2022-08-26T02:03:11;25.50;80.90
7362;DHT22;3721;44.490;11.220;2022-08-26T02:06:04;25.50;81.00
7362;DHT22;3721;44.490;11.220;2022-08-26T02:11:05;25.50;80.90
7362;DHT22;3721;44.490;11.220;2022-08-26T02:13:33;25.50;80.80
7362;DHT22;3721;44.490;11.220;2022-08-26T02:16:02;25.40;80.90
7362;DHT22;3721;44.490;11.220;2022-08-26T02:18:30;25.40;81.00
7362;DHT22;3721;44.490;11.220;2022-08-26T02:20:57;25.40;81.10
7362;DHT22;3721;44.490;11.220;2022-08-26T02:23:25;25.40;81.20
7362;DHT22;3721;44.490;11.220;2022-08-26T02:25:59;25.40;81.20
7362;DHT22;3721;44.490;11.220;2022-08-26T02:28:31;25.30;81.10
7362;DHT22;3721;44.490;11.220;2022-08-26T02:30:59;25.30;81.20
7362;DHT22;3721;44.490;11.220;2022-08-26T02:33:27;25.20;81.30
7362;DHT22;3721;44.490;11.220;2022-08-26T02:35:53;25.20;81.50
7362;DHT22;3721;44.490;11.220;2022-08-26T02:38:19;25.20;81.40
7362;DHT22;3721;44.490;11.220;2022-08-26T02:40:44;25.20;81.30
7362;DHT22;3721;44.490;11.220;2022-08-26T02:43:10;25.30;81.40
7362;DHT22;3721;44.490;11.220;2022-08-26T02:45:37;25.30;81.30
7362;DHT22;3721;44.490;11.220;2022-08-26T02:48:11;25.30;81.20
7362;DHT22;3721;44.490;11.220;2022-08-26T02:50:38;25.30;81.20
7362;DHT22;3721;44.490;11.220;2022-08-26T02:53:04;25.30;81.20
7362;DHT22;3721;44.490;11.220;2022-08-26T02:55:30;25.20;81.10
7362;DHT22;3721;44.490;11.220;2022-08-26T02:57:56;25.20;81.20
7362;DHT22;3721;44.490;11.220;2022-08-26T03:00:23;25.20;81.10
7362;DHT22;3721;44.490;11.220;2022-08-26T03:02:49;25.20;81.10
7362;DHT22;3721;44.490;11.220;2022-08-26T03:05:15;25.20;81.20
7362;DHT22;3721;44.490;11.220;2022-08-26T03:07:42;25.20;81.40
7362;DHT22;3721;44.490;11.220;2022-08-26T03:10:08;25.20;81.40
7362;DHT22;3721;44.490;11.220;2022-08-26T03:12:37;25.10;81.40
7362;DHT22;3721;44.490;11.220;2022-08-26T03:15:03;24.90;81.70
7362;DHT22;3721;44.490;11.220;2022-08-26T03:17:30;24.70;82.20
7362;DHT22;3721;44.490;11.220;2022-08-26T03:19:56;24.60;82.70
7362;DHT22;3721;44.490;11.220;2022-08-26T03:22:21;24.50;83.20
7362;DHT22;3721;44.490;11.220;2022-08-26T03:24:47;24.40;83.60
7362;DHT22;3721;44.490;11.220;2022-08-26T03:27:13;24.40;84.10
7362;DHT22;3721;44.490;11.220;2022-08-26T03:29:39;24.40;85.10
7362;DHT22;3721;44.490;11.220;2022-08-26T03:32:23;24.40;84.80
7362;DHT22;3721;44.490;11.220;2022-08-26T03:34:49;24.40;85.20
7362;DHT22;3721;44.490;11.220;2022-08-26T03:37:14;24.40;85.60
7362;DHT22;3721;44.490;11.220;2022-08-26T03:39:40;24.40;85.90
7362;DHT22;3721;44.490;11.220;2022-08-26T03:42:06;24.50;86.10
7362;DHT22;3721;44.490;11.220;2022-08-26T03:44:32;24.50;86.30
7362;DHT22;3721;44.490;11.220;2022-08-26T03:46:57;24.50;86.40
7362;DHT22;3721;44.490;11.220;2022-08-26T03:49:23;24.50;86.30
7362;DHT22;3721;44.490;11.220;2022-08-26T03:51:49;24.60;86.30
7362;DHT22;3721;44.490;11.220;2022-08-26T03:54:15;24.60;86.40
7362;DHT22;3721;44.490;11.220;2022-08-26T03:56:40;24.60;86.40
7362;DHT22;3721;44.490;11.220;2022-08-26T03:59:06;24.60;86.50
7362;DHT22;3721;44.490;11.220;2022-08-26T04:01:32;24.60;86.60
7362;DHT22;3721;44.490;11.220;2022-08-26T04:03:58;24.60;86.60
7362;DHT22;3721;44.490;11.220;2022-08-26T04:06:31;24.60;86.70
7362;DHT22;3721;44.490;11.220;2022-08-26T04:08:59;24.60;86.70
7362;DHT22;3721;44.490;11.220;2022-08-26T04:11:27;24.60;86.80
7362;DHT22;3721;44.490;11.220;2022-08-26T04:13:57;24.60;86.70
7362;DHT22;3721;44.490;11.220;2022-08-26T04:16:24;24.60;86.60
7362;DHT22;3721;44.490;11.220;2022-08-26T04:18:50;24.60;86.60
7362;DHT22;3721;44.490;11.220;2022-08-26T04:21:16;24.60;86.60
7362;DHT22;3721;44.490;11.220;2022-08-26T04:23:42;24.60;86.50
7362;DHT22;3721;44.490;11.220;2022-08-26T04:26:07;24.60;86.50
7362;DHT22;3721;44.490;11.220;2022-08-26T04:28:33;24.50;86.40
7362;DHT22;3721;44.490;11.220;2022-08-26T04:30:59;24.50;86.60
7362;DHT22;3721;44.490;11.220;2022-08-26T04:33:24;24.50;86.90
7362;DHT22;3721;44.490;11.220;2022-08-26T04:36:01;24.50;86.90
7362;DHT22;3721;44.490;11.220;2022-08-26T04:38:28;24.50;86.80
7362;DHT22;3721;44.490;11.220;2022-08-26T04:40:54;24.50;86.90
7362;DHT22;3721;44.490;11.220;2022-08-26T04:43:20;24.50;87.00
7362;DHT22;3721;44.490;11.220;2022-08-26T04:45:46;24.40;87.00
7362;DHT22;3721;44.490;11.220;2022-08-26T04:48:11;24.40;87.20
7362;DHT22;3721;44.490;11.220;2022-08-26T04:50:37;24.40;87.40
7362;DHT22;3721;44.490;11.220;2022-08-26T04:53:03;24.40;87.40
7362;DHT22;3721;44.490;11.220;2022-08-26T04:55:29;24.50;87.40
7362;DHT22;3721;44.490;11.220;2022-08-26T04:57:56;24.50;87.40
7362;DHT22;3721;44.490;11.220;2022-08-26T05:00:22;24.50;87.30
7362;DHT22;3721;44.490;11.220;2022-08-26T05:02:47;24.50;87.10
7362;DHT22;3721;44.490;11.220;2022-08-26T05:05:13;24.50;87.10
7362;DHT22;3721;44.490;11.220;2022-08-26T05:07:39;24.50;87.30
7362;DHT22;3721;44.490;11.220;2022-08-26T05:10:06;24.50;87.20
7362;DHT22;3721;44.490;11.220;2022-08-26T05:12:32;24.50;87.20
7362;DHT22;3721;44.490;11.220;2022-08-26T05:14:57;24.60;87.40
7362;DHT22;3721;44.490;11.220;2022-08-26T05:17:24;24.60;87.40
7362;DHT22;3721;44.490;11.220;2022-08-26T05:19:52;24.60;87.50
7362;DHT22;3721;44.490;11.220;2022-08-26T05:22:17;24.60;87.50
7362;DHT22;3721;44.490;11.220;2022-08-26T05:24:44;24.60;87.50
7362;DHT22;3721;44.490;11.220;2022-08-26T05:27:11;24.60;87.60
7362;DHT22;3721;44.490;11.220;2022-08-26T05:29:38;24.60;87.60
7362;DHT22;3721;44.490;11.220;2022-08-26T05:32:05;24.60;87.70
7362;DHT22;3721;44.490;11.220;2022-08-26T05:34:30;24.60;87.80
7362;DHT22;3721;44.490;11.220;2022-08-26T05:36:57;24.70;88.00
7362;DHT22;3721;44.490;11.220;2022-08-26T05:39:22;24.70;88.10
7362;DHT22;3721;44.490;11.220;2022-08-26T05:41:49;24.70;88.30
7362;DHT22;3721;44.490;11.220;2022-08-26T05:44:16;24.70;88.30
7362;DHT22;3721;44.490;11.220;2022-08-26T05:46:43;24.80;88.30
7362;DHT22;3721;44.490;11.220;2022-08-26T05:49:12;24.80;88.20
7362;DHT22;3721;44.490;11.220;2022-08-26T05:51:39;24.90;88.20
7362;DHT22;3721;44.490;11.220;2022-08-26T05:54:04;24.90;88.10
7362;DHT22;3721;44.490;11.220;2022-08-26T05:56:31;24.90;88.10
7362;DHT22;3721;44.490;11.220;2022-08-26T05:58:58;25.00;88.80
7362;DHT22;3721;44.490;11.220;2022-08-26T06:01:27;25.00;88.30
7362;DHT22;3721;44.490;11.220;2022-08-26T06:03:56;25.10;88.40
7362;DHT22;3721;44.490;11.220;2022-08-26T06:06:25;25.20;88.50
7362;DHT22;3721;44.490;11.220;2022-08-26T06:08:51;25.30;88.90
7362;DHT22;3721;44.490;11.220;2022-08-26T06:13:45;25.50;89.30
7362;DHT22;3721;44.490;11.220;2022-08-26T06:16:16;25.60;90.10
7362;DHT22;3721;44.490;11.220;2022-08-26T06:18:44;25.80;90.20
7362;DHT22;3721;44.490;11.220;2022-08-26T06:21:26;26.00;90.00
7362;DHT22;3721;44.490;11.220;2022-08-26T06:24:01;26.20;89.70
7362;DHT22;3721;44.490;11.220;2022-08-26T06:26:51;26.30;89.10
7362;DHT22;3721;44.490;11.220;2022-08-26T06:29:19;26.50;88.90
7362;DHT22;3721;44.490;11.220;2022-08-26T06:31:45;26.60;89.20
7362;DHT22;3721;44.490;11.220;2022-08-26T06:34:12;26.80;89.10
7362;DHT22;3721;44.490;11.220;2022-08-26T06:36:40;27.00;88.70
7362;DHT22;3721;44.490;11.220;2022-08-26T06:39:08;27.10;87.30
7362;DHT22;3721;44.490;11.220;2022-08-26T06:41:35;27.30;86.30
7362;DHT22;3721;44.490;11.220;2022-08-26T06:44:02;27.40;85.70
7362;DHT22;3721;44.490;11.220;2022-08-26T06:46:28;27.40;85.60
7362;DHT22;3721;44.490;11.220;2022-08-26T06:48:55;27.40;85.60
7362;DHT22;3721;44.490;11.220;2022-08-26T06:51:27;27.50;85.40
7362;DHT22;3721;44.490;11.220;2022-08-26T06:53:55;27.50;85.10
7362;DHT22;3721;44.490;11.220;2022-08-26T06:56:32;27.50;85.70
7362;DHT22;3721;44.490;11.220;2022-08-26T06:58:58;27.50;84.90
7362;DHT22;3721;44.490;11.220;2022-08-26T07:01:30;27.60;84.70
7362;DHT22;3721;44.490;11.220;2022-08-26T07:03:58;27.70;84.90
7362;DHT22;3721;44.490;11.220;2022-08-26T07:06:26;27.80;84.30
7362;DHT22;3721;44.490;11.220;2022-08-26T07:08:59;27.90;83.80
7362;DHT22;3721;44.490;11.220;2022-08-26T07:11:26;28.00;83.60
7362;DHT22;3721;44.490;11.220;2022-08-26T07:13:52;28.20;83.30
7362;DHT22;3721;44.490;11.220;2022-08-26T07:16:19;28.30;82.80
7362;DHT22;3721;44.490;11.220;2022-08-26T07:18:45;28.30;82.30
7362;DHT22;3721;44.490;11.220;2022-08-26T07:21:14;28.40;82.10
7362;DHT22;3721;44.490;11.220;2022-08-26T07:23:41;28.50;81.90
7362;DHT22;3721;44.490;11.220;2022-08-26T07:26:13;28.60;81.50
7362;DHT22;3721;44.490;11.220;2022-08-26T07:28:41;28.70;80.50
7362;DHT22;3721;44.490;11.220;2022-08-26T07:31:09;28.90;80.00
7362;DHT22;3721;44.490;11.220;2022-08-26T07:33:36;29.00;79.70
7362;DHT22;3721;44.490;11.220;2022-08-26T07:36:04;29.00;79.40
7362;DHT22;3721;44.490;11.220;2022-08-26T07:38:30;29.20;79.00
7362;DHT22;3721;44.490;11.220;2022-08-26T07:40:56;29.30;78.80
7362;DHT22;3721;44.490;11.220;2022-08-26T07:43:21;29.50;78.80
7362;DHT22;3721;44.490;11.220;2022-08-26T07:45:47;29.60;78.10
7362;DHT22;3721;44.490;11.220;2022-08-26T07:48:13;29.60;78.20
7362;DHT22;3721;44.490;11.220;2022-08-26T07:50:38;29.70;77.60
7362;DHT22;3721;44.490;11.220;2022-08-26T07:53:06;29.80;77.70
7362;DHT22;3721;44.490;11.220;2022-08-26T07:55:31;29.90;76.90
7362;DHT22;3721;44.490;11.220;2022-08-26T07:57:57;30.00;76.40
7362;DHT22;3721;44.490;11.220;2022-08-26T08:00:23;30.00;76.10
7362;DHT22;3721;44.490;11.220;2022-08-26T08:02:49;30.00;74.90
7362;DHT22;3721;44.490;11.220;2022-08-26T08:05:18;30.10;74.70
7362;DHT22;3721;44.490;11.220;2022-08-26T08:07:44;30.10;75.20
7362;DHT22;3721;44.490;11.220;2022-08-26T08:10:15;30.20;74.70
7362;DHT22;3721;44.490;11.220;2022-08-26T08:12:41;30.20;74.80
7362;DHT22;3721;44.490;11.220;2022-08-26T08:15:08;30.30;72.60
7362;DHT22;3721;44.490;11.220;2022-08-26T08:17:34;30.40;73.00
7362;DHT22;3721;44.490;11.220;2022-08-26T08:20:00;30.40;72.60
7362;DHT22;3721;44.490;11.220;2022-08-26T08:22:27;30.40;72.30
7362;DHT22;3721;44.490;11.220;2022-08-26T08:24:53;30.40;71.60
7362;DHT22;3721;44.490;11.220;2022-08-26T08:27:19;30.40;72.50
7362;DHT22;3721;44.490;11.220;2022-08-26T08:29:44;30.50;72.80
7362;DHT22;3721;44.490;11.220;2022-08-26T08:32:12;30.60;72.20
7362;DHT22;3721;44.490;11.220;2022-08-26T08:34:38;30.60;71.30
7362;DHT22;3721;44.490;11.220;2022-08-26T08:37:04;30.60;70.70
7362;DHT22;3721;44.490;11.220;2022-08-26T08:39:30;30.70;70.50
7362;DHT22;3721;44.490;11.220;2022-08-26T08:44:41;30.70;70.50
7362;DHT22;3721;44.490;11.220;2022-08-26T08:49:55;30.70;70.30
7362;DHT22;3721;44.490;11.220;2022-08-26T08:52:31;30.80;70.40
7362;DHT22;3721;44.490;11.220;2022-08-26T08:55:00;30.90;69.70
7362;DHT22;3721;44.490;11.220;2022-08-26T09:00:18;31.00;69.60
7362;DHT22;3721;44.490;11.220;2022-08-26T09:03:00;31.00;68.80
7362;DHT22;3721;44.490;11.220;2022-08-26T09:05:31;31.10;68.30
7362;DHT22;3721;44.490;11.220;2022-08-26T09:08:07;31.20;68.60
7362;DHT22;3721;44.490;11.220;2022-08-26T09:13:08;31.30;68.60
7362;DHT22;3721;44.490;11.220;2022-08-26T09:21:05;31.30;68.70
7362;DHT22;3721;44.490;11.220;2022-08-26T09:23:35;31.30;69.10
7362;DHT22;3721;44.490;11.220;2022-08-26T09:26:12;31.30;68.90
7362;DHT22;3721;44.490;11.220;2022-08-26T09:28:40;31.30;66.80
7362;DHT22;3721;44.490;11.220;2022-08-26T09:31:21;31.30;66.40
7362;DHT22;3721;44.490;11.220;2022-08-26T09:33:48;31.40;67.20
7362;DHT22;3721;44.490;11.220;2022-08-26T09:36:21;31.40;65.40
7362;DHT22;3721;44.490;11.220;2022-08-26T09:38:50;31.40;66.40
7362;DHT22;3721;44.490;11.220;2022-08-26T09:41:26;31.40;66.60
7362;DHT22;3721;44.490;11.220;2022-08-26T09:44:11;31.40;66.90
7362;DHT22;3721;44.490;11.220;2022-08-26T09:46:53;31.40;67.10
7362;DHT22;3721;44.490;11.220;2022-08-26T09:52:09;31.50;67.10
7362;DHT22;3721;44.490;11.220;2022-08-26T09:54:36;31.50;67.70
7362;DHT22;3721;44.490;11.220;2022-08-26T09:57:18;31.60;66.50
7362;DHT22;3721;44.490;11.220;2022-08-26T09:59:45;31.60;66.70
7362;DHT22;3721;44.490;11.220;2022-08-26T10:02:36;31.70;65.50
7362;DHT22;3721;44.490;11.220;2022-08-26T10:05:07;31.70;65.20
7362;DHT22;3721;44.490;11.220;2022-08-26T10:07:41;31.70;65.60
7362;DHT22;3721;44.490;11.220;2022-08-26T10:10:24;31.70;65.90
7362;DHT22;3721;44.490;11.220;2022-08-26T10:13:07;31.70;64.60
7362;DHT22;3721;44.490;11.220;2022-08-26T10:18:30;31.70;64.30
7362;DHT22;3721;44.490;11.220;2022-08-26T10:21:19;31.70;64.50
7362;DHT22;3721;44.490;11.220;2022-08-26T10:23:49;31.70;64.80
7362;DHT22;3721;44.490;11.220;2022-08-26T10:31:37;31.70;64.00
7362;DHT22;3721;44.490;11.220;2022-08-26T10:34:03;31.70;64.20
7362;DHT22;3721;44.490;11.220;2022-08-26T10:36:34;31.70;64.50
7362;DHT22;3721;44.490;11.220;2022-08-26T10:45:27;31.70;65.30
7362;DHT22;3721;44.490;11.220;2022-08-26T10:50:24;31.70;64.60
7362;DHT22;3721;44.490;11.220;2022-08-26T11:00:54;31.80;65.10
7362;DHT22;3721;44.490;11.220;2022-08-26T11:03:54;31.80;65.50
7362;DHT22;3721;44.490;11.220;2022-08-26T11:06:25;31.80;65.60
7362;DHT22;3721;44.490;11.220;2022-08-26T11:08:54;31.80;65.30
7362;DHT22;3721;44.490;11.220;2022-08-26T11:22:32;32.00;63.00
7362;DHT22;3721;44.490;11.220;2022-08-26T11:25:03;32.00;64.10
7362;DHT22;3721;44.490;11.220;2022-08-26T11:35:08;32.00;62.80
7362;DHT22;3721;44.490;11.220;2022-08-26T11:38:01;32.00;63.00
7362;DHT22;3721;44.490;11.220;2022-08-26T11:40:30;31.90;62.70
7362;DHT22;3721;44.490;11.220;2022-08-26T11:43:12;31.90;63.60
7362;DHT22;3721;44.490;11.220;2022-08-26T11:46:07;31.90;63.20
7362;DHT22;3721;44.490;11.220;2022-08-26T11:48:34;31.90;62.70
7362;DHT22;3721;44.490;11.220;2022-08-26T11:53:45;32.00;62.50
7362;DHT22;3721;44.490;11.220;2022-08-26T11:56:25;32.00;62.60
7362;DHT22;3721;44.490;11.220;2022-08-26T11:58:56;32.00;62.20
7362;DHT22;3721;44.490;11.220;2022-08-26T12:01:31;32.00;62.30
7362;DHT22;3721;44.490;11.220;2022-08-26T12:03:58;32.00;62.20
7362;DHT22;3721;44.490;11.220;2022-08-26T12:06:29;32.00;62.30
7362;DHT22;3721;44.490;11.220;2022-08-26T12:08:58;31.90;61.70
7362;DHT22;3721;44.490;11.220;2022-08-26T12:11:30;31.90;61.70
7362;DHT22;3721;44.490;11.220;2022-08-26T12:13:59;32.00;61.80
7362;DHT22;3721;44.490;11.220;2022-08-26T12:16:31;32.00;61.70
7362;DHT22;3721;44.490;11.220;2022-08-26T12:18:58;32.00;61.80
7362;DHT22;3721;44.490;11.220;2022-08-26T12:21:29;32.00;61.70
7362;DHT22;3721;44.490;11.220;2022-08-26T12:23:59;32.00;61.80
7362;DHT22;3721;44.490;11.220;2022-08-26T12:26:34;32.00;62.30
7362;DHT22;3721;44.490;11.220;2022-08-26T12:29:08;32.10;61.70
7362;DHT22;3721;44.490;11.220;2022-08-26T12:31:41;32.10;60.10
7362;DHT22;3721;44.490;11.220;2022-08-26T12:34:10;32.10;60.40
7362;DHT22;3721;44.490;11.220;2022-08-26T12:39:24;32.10;60.10
7362;DHT22;3721;44.490;11.220;2022-08-26T12:42:01;32.10;60.00
7362;DHT22;3721;44.490;11.220;2022-08-26T12:47:25;32.10;59.60
7362;DHT22;3721;44.490;11.220;2022-08-26T12:50:22;32.10;59.80
7362;DHT22;3721;44.490;11.220;2022-08-26T12:53:03;32.10;59.70
7362;DHT22;3721;44.490;11.220;2022-08-26T12:58:29;32.00;59.60
7362;DHT22;3721;44.490;11.220;2022-08-26T13:11:28;32.00;60.70
7362;DHT22;3721;44.490;11.220;2022-08-26T13:14:06;32.10;59.70
7362;DHT22;3721;44.490;11.220;2022-08-26T13:16:32;32.10;59.70
7362;DHT22;3721;44.490;11.220;2022-08-26T13:19:04;32.10;59.60
7362;DHT22;3721;44.490;11.220;2022-08-26T13:21:34;32.10;59.60
7362;DHT22;3721;44.490;11.220;2022-08-26T13:24:09;32.10;59.70
7362;DHT22;3721;44.490;11.220;2022-08-26T13:26:40;32.10;59.90
7362;DHT22;3721;44.490;11.220;2022-08-26T13:29:07;32.30;60.00
7362;DHT22;3721;44.490;11.220;2022-08-26T13:31:34;32.30;59.40
7362;DHT22;3721;44.490;11.220;2022-08-26T13:34:02;32.40;59.10
7362;DHT22;3721;44.490;11.220;2022-08-26T13:36:28;32.40;59.00
7362;DHT22;3721;44.490;11.220;2022-08-26T13:38:54;32.40;58.90
7362;DHT22;3721;44.490;11.220;2022-08-26T13:41:20;32.40;59.00
7362;DHT22;3721;44.490;11.220;2022-08-26T13:43:45;32.40;59.20
7362;DHT22;3721;44.490;11.220;2022-08-26T13:46:11;32.30;59.30
7362;DHT22;3721;44.490;11.220;2022-08-26T13:48:37;32.30;59.30
7362;DHT22;3721;44.490;11.220;2022-08-26T13:51:03;32.30;59.30
7362;DHT22;3721;44.490;11.220;2022-08-26T13:53:30;32.30;59.30
7362;DHT22;3721;44.490;11.220;2022-08-26T13:55:57;32.30;60.00
7362;DHT22;3721;44.490;11.220;2022-08-26T13:58:24;32.30;60.50
7362;DHT22;3721;44.490;11.220;2022-08-26T14:00:50;32.30;59.60
7362;DHT22;3721;44.490;11.220;2022-08-26T14:03:16;32.30;59.50
7362;DHT22;3721;44.490;11.220;2022-08-26T14:05:42;32.20;59.30
7362;DHT22;3721;44.490;11.220;2022-08-26T14:08:08;32.20;59.10
7362;DHT22;3721;44.490;11.220;2022-08-26T14:10:34;32.20;59.10
7362;DHT22;3721;44.490;11.220;2022-08-26T14:12:59;32.20;59.20
7362;DHT22;3721;44.490;11.220;2022-08-26T14:15:26;32.20;59.20
7362;DHT22;3721;44.490;11.220;2022-08-26T14:17:52;32.20;59.40
7362;DHT22;3721;44.490;11.220;2022-08-26T14:20:25;32.20;59.10
7362;DHT22;3721;44.490;11.220;2022-08-26T14:22:52;32.20;59.20
7362;DHT22;3721;44.490;11.220;2022-08-26T14:25:18;32.20;59.10
7362;DHT22;3721;44.490;11.220;2022-08-26T14:27:45;32.20;59.00
7362;DHT22;3721;44.490;11.220;2022-08-26T14:30:11;32.10;59.20
7362;DHT22;3721;44.490;11.220;2022-08-26T14:32:41;32.10;59.20
7362;DHT22;3721;44.490;11.220;2022-08-26T14:35:12;32.10;59.30
7362;DHT22;3721;44.490;11.220;2022-08-26T14:37:41;32.10;59.50
7362;DHT22;3721;44.490;11.220;2022-08-26T14:40:07;32.10;59.90
7362;DHT22;3721;44.490;11.220;2022-08-26T14:42:34;32.10;59.90
7362;DHT22;3721;44.490;11.220;2022-08-26T14:45:02;32.10;60.00
7362;DHT22;3721;44.490;11.220;2022-08-26T14:47:29;32.10;59.80
7362;DHT22;3721;44.490;11.220;2022-08-26T14:49:56;32.00;59.30
7362;DHT22;3721;44.490;11.220;2022-08-26T14:52:22;32.00;59.30
7362;DHT22;3721;44.490;11.220;2022-08-26T14:54:47;32.00;59.40
7362;DHT22;3721;44.490;11.220;2022-08-26T14:57:14;32.00;59.50
7362;DHT22;3721;44.490;11.220;2022-08-26T14:59:45;32.00;59.50
7362;DHT22;3721;44.490;11.220;2022-08-26T15:02:13;32.00;59.60
7362;DHT22;3721;44.490;11.220;2022-08-26T15:04:39;32.00;59.70
7362;DHT22;3721;44.490;11.220;2022-08-26T15:07:05;32.00;59.70
7362;DHT22;3721;44.490;11.220;2022-08-26T15:09:34;32.00;59.50
7362;DHT22;3721;44.490;11.220;2022-08-26T15:12:01;32.00;59.60
7362;DHT22;3721;44.490;11.220;2022-08-26T15:14:27;32.00;59.60
7362;DHT22;3721;44.490;11.220;2022-08-26T15:16:55;32.10;59.70
7362;DHT22;3721;44.490;11.220;2022-08-26T15:19:23;32.00;59.80
7362;DHT22;3721;44.490;11.220;2022-08-26T15:21:49;32.00;59.70
7362;DHT22;3721;44.490;11.220;2022-08-26T15:24:18;32.00;59.90
7362;DHT22;3721;44.490;11.220;2022-08-26T15:26:44;32.00;60.10
7362;DHT22;3721;44.490;11.220;2022-08-26T15:29:11;32.00;60.30
7362;DHT22;3721;44.490;11.220;2022-08-26T15:31:37;32.00;59.70
7362;DHT22;3721;44.490;11.220;2022-08-26T15:34:06;32.10;59.60
7362;DHT22;3721;44.490;11.220;2022-08-26T15:36:34;32.10;59.60
7362;DHT22;3721;44.490;11.220;2022-08-26T15:39:00;32.00;59.60
7362;DHT22;3721;44.490;11.220;2022-08-26T15:41:26;32.00;59.50
7362;DHT22;3721;44.490;11.220;2022-08-26T15:43:52;32.10;59.70
7362;DHT22;3721;44.490;11.220;2022-08-26T15:46:18;32.10;59.70
7362;DHT22;3721;44.490;11.220;2022-08-26T15:48:44;32.00;59.70
7362;DHT22;3721;44.490;11.220;2022-08-26T15:51:20;32.00;59.50
7362;DHT22;3721;44.490;11.220;2022-08-26T15:53:46;32.10;59.40
7362;DHT22;3721;44.490;11.220;2022-08-26T15:56:13;32.00;59.40
7362;DHT22;3721;44.490;11.220;2022-08-26T15:58:38;32.00;59.50
7362;DHT22;3721;44.490;11.220;2022-08-26T16:01:04;32.00;59.70
7362;DHT22;3721;44.490;11.220;2022-08-26T16:03:30;32.00;59.70
7362;DHT22;3721;44.490;11.220;2022-08-26T16:05:56;32.10;59.60
7362;DHT22;3721;44.490;11.220;2022-08-26T16:08:22;32.10;60.30
7362;DHT22;3721;44.490;11.220;2022-08-26T16:10:48;32.00;59.70
7362;DHT22;3721;44.490;11.220;2022-08-26T16:13:15;32.00;59.80
7362;DHT22;3721;44.490;11.220;2022-08-26T16:15:41;32.00;59.60
7362;DHT22;3721;44.490;11.220;2022-08-26T16:18:08;32.00;59.50
7362;DHT22;3721;44.490;11.220;2022-08-26T16:20:36;32.00;59.30
7362;DHT22;3721;44.490;11.220;2022-08-26T16:23:04;32.00;59.40
7362;DHT22;3721;44.490;11.220;2022-08-26T16:25:30;32.00;59.50
7362;DHT22;3721;44.490;11.220;2022-08-26T16:27:56;31.90;59.50
7362;DHT22;3721;44.490;11.220;2022-08-26T16:30:22;31.90;59.70
7362;DHT22;3721;44.490;11.220;2022-08-26T16:32:48;31.80;59.60
7362;DHT22;3721;44.490;11.220;2022-08-26T16:35:14;31.80;59.60
7362;DHT22;3721;44.490;11.220;2022-08-26T16:37:41;31.80;59.60
7362;DHT22;3721;44.490;11.220;2022-08-26T16:40:08;31.80;59.70
7362;DHT22;3721;44.490;11.220;2022-08-26T16:42:35;31.80;59.70
7362;DHT22;3721;44.490;11.220;2022-08-26T16:45:01;31.70;59.70
7362;DHT22;3721;44.490;11.220;2022-08-26T16:47:27;31.70;59.80
7362;DHT22;3721;44.490;11.220;2022-08-26T16:49:53;31.70;60.10
7362;DHT22;3721;44.490;11.220;2022-08-26T16:52:19;31.60;60.30
7362;DHT22;3721;44.490;11.220;2022-08-26T16:54:45;31.60;60.70
7362;DHT22;3721;44.490;11.220;2022-08-26T16:57:11;31.60;60.90
7362;DHT22;3721;44.490;11.220;2022-08-26T16:59:38;31.50;61.00
7362;DHT22;3721;44.490;11.220;2022-08-26T17:02:04;31.50;61.00
7362;DHT22;3721;44.490;11.220;2022-08-26T17:04:30;31.50;61.00
7362;DHT22;3721;44.490;11.220;2022-08-26T17:06:57;31.50;61.10
7362;DHT22;3721;44.490;11.220;2022-08-26T17:09:24;31.40;61.10
7362;DHT22;3721;44.490;11.220;2022-08-26T17:11:50;31.40;61.10
7362;DHT22;3721;44.490;11.220;2022-08-26T17:14:16;31.40;61.30
7362;DHT22;3721;44.490;11.220;2022-08-26T17:16:42;31.30;61.10
7362;DHT22;3721;44.490;11.220;2022-08-26T17:19:08;31.30;61.20
7362;DHT22;3721;44.490;11.220;2022-08-26T17:21:34;31.30;61.10
7362;DHT22;3721;44.490;11.220;2022-08-26T17:24:03;31.30;61.30
7362;DHT22;3721;44.490;11.220;2022-08-26T17:26:29;31.30;61.40